sensor_id;sensor_type;location;lat;lon;timestamp;P1;durP1;ratioP1;P2;durP2;ratioP2
75603;SDS011;64187;51.010;13.792;2023-07-13T00:03:04;2.83;;;2.08;;
75603;SDS011;64187;51.010;13.792;2023-07-13T00:08:03;1.92;;;1.67;;
75603;SDS011;64187;51.010;13.792;2023-07-13T00:13:02;4.07;;;1.90;;
75603;SDS011;64187;51.010;13.792;2023-07-13T00:18:02;2.53;;;1.90;;
75603;SDS011;64187;51.010;13.792;2023-07-13T00:23:01;2.42;;;1.75;;
75603;SDS011;64187;51.010;13.792;2023-07-13T00:28:00;2.78;;;1.70;;
75603;SDS011;64187;51.010;13.792;2023-07-13T00:32:59;4.40;;;2.00;;
75603;SDS011;64187;51.010;13.792;2023-07-13T00:38:15;4.30;;;2.30;;
75603;SDS011;64187;51.010;13.792;2023-07-13T00:43:18;4.10;;;2.40;;
75603;SDS011;64187;51.010;13.792;2023-07-13T00:48:20;3.53;;;2.30;;
75603;SDS011;64187;51.010;13.792;2023-07-13T00:53:23;2.53;;;2.33;;
75603;SDS011;64187;51.010;13.792;2023-07-13T00:58:25;3.75;;;2.30;;
75603;SDS011;64187;51.010;13.792;2023-07-13T01:03:26;3.50;;;2.63;;
75603;SDS011;64187;51.010;13.792;2023-07-13T01:08:25;3.53;;;2.55;;
75603;SDS011;64187;51.010;13.792;2023-07-13T01:13:24;6.65;;;3.55;;
75603;SDS011;64187;51.010;13.792;2023-07-13T01:18:24;3.17;;;2.88;;
75603;SDS011;64187;51.010;13.792;2023-07-13T01:23:27;4.38;;;2.92;;
75603;SDS011;64187;51.010;13.792;2023-07-13T01:28:27;13.65;;;3.47;;
75603;SDS011;64187;51.010;13.792;2023-07-13T01:33:26;4.82;;;3.05;;
75603;SDS011;64187;51.010;13.792;2023-07-13T01:38:28;6.20;;;4.00;;
75603;SDS011;64187;51.010;13.792;2023-07-13T01:43:27;5.18;;;3.83;;
75603;SDS011;64187;51.010;13.792;2023-07-13T01:48:26;4.63;;;3.20;;
75603;SDS011;64187;51.010;13.792;2023-07-13T01:53:25;3.97;;;3.08;;
75603;SDS011;64187;51.010;13.792;2023-07-13T01:58:23;5.25;;;3.58;;
75603;SDS011;64187;51.010;13.792;2023-07-13T02:03:22;3.83;;;3.28;;
75603;SDS011;64187;51.010;13.792;2023-07-13T02:08:21;5.55;;;3.67;;
75603;SDS011;64187;51.010;13.792;2023-07-13T02:13:20;4.93;;;4.18;;
75603;SDS011;64187;51.010;13.792;2023-07-13T02:18:19;5.78;;;3.42;;
75603;SDS011;64187;51.010;13.792;2023-07-13T02:23:18;4.82;;;3.60;;
75603;SDS011;64187;51.010;13.792;2023-07-13T02:28:17;5.40;;;4.00;;
75603;SDS011;64187;51.010;13.792;2023-07-13T02:33:16;5.88;;;4.40;;
75603;SDS011;64187;51.010;13.792;2023-07-13T02:38:15;5.82;;;3.55;;
75603;SDS011;64187;51.010;13.792;2023-07-13T02:43:14;4.75;;;3.40;;
75603;SDS011;64187;51.010;13.792;2023-07-13T02:48:13;4.78;;;3.65;;
75603;SDS011;64187;51.010;13.792;2023-07-13T02:53:13;4.57;;;3.95;;
75603;SDS011;64187;51.010;13.792;2023-07-13T02:58:11;4.70;;;3.80;;
75603;SDS011;64187;51.010;13.792;2023-07-13T03:03:10;3.88;;;3.55;;
75603;SDS011;64187;51.010;13.792;2023-07-13T03:08:10;7.32;;;4.38;;
75603;SDS011;64187;51.010;13.792;2023-07-13T03:13:12;9.43;;;5.53;;
75603;SDS011;64187;51.010;13.792;2023-07-13T03:18:11;8.23;;;4.80;;
75603;SDS011;64187;51.010;13.792;2023-07-13T03:23:11;4.53;;;3.83;;
75603;SDS011;64187;51.010;13.792;2023-07-13T03:28:11;7.70;;;4.30;;
75603;SDS011;64187;51.010;13.792;2023-07-13T03:33:12;6.20;;;4.22;;
75603;SDS011;64187;51.010;13.792;2023-07-13T03:38:11;6.97;;;4.28;;
75603;SDS011;64187;51.010;13.792;2023-07-13T03:43:10;7.07;;;4.63;;
75603;SDS011;64187;51.010;13.792;2023-07-13T03:48:09;7.93;;;4.50;;
75603;SDS011;64187;51.010;13.792;2023-07-13T03:53:08;6.88;;;4.72;;
75603;SDS011;64187;51.010;13.792;2023-07-13T03:58:43;6.22;;;5.15;;
75603;SDS011;64187;51.010;13.792;2023-07-13T04:03:42;7.05;;;4.80;;
75603;SDS011;64187;51.010;13.792;2023-07-13T04:08:43;8.30;;;4.95;;
75603;SDS011;64187;51.010;13.792;2023-07-13T04:13:41;8.75;;;5.72;;
75603;SDS011;64187;51.010;13.792;2023-07-13T04:18:40;9.63;;;5.15;;
75603;SDS011;64187;51.010;13.792;2023-07-13T04:23:39;8.73;;;4.85;;
75603;SDS011;64187;51.010;13.792;2023-07-13T04:28:38;4.80;;;4.13;;
75603;SDS011;64187;51.010;13.792;2023-07-13T04:33:37;5.80;;;4.30;;
75603;SDS011;64187;51.010;13.792;2023-07-13T04:38:36;6.22;;;4.32;;
75603;SDS011;64187;51.010;13.792;2023-07-13T04:43:36;6.20;;;4.55;;
75603;SDS011;64187;51.010;13.792;2023-07-13T04:48:34;5.55;;;4.60;;
75603;SDS011;64187;51.010;13.792;2023-07-13T04:53:33;7.38;;;5.20;;
75603;SDS011;64187;51.010;13.792;2023-07-13T04:58:33;8.52;;;4.93;;
75603;SDS011;64187;51.010;13.792;2023-07-13T05:03:32;6.75;;;4.60;;
75603;SDS011;64187;51.010;13.792;2023-07-13T05:08:32;4.85;;;4.32;;
75603;SDS011;64187;51.010;13.792;2023-07-13T05:13:31;6.25;;;5.10;;
75603;SDS011;64187;51.010;13.792;2023-07-13T05:18:30;8.07;;;4.90;;
75603;SDS011;64187;51.010;13.792;2023-07-13T05:23:30;4.90;;;3.90;;
75603;SDS011;64187;51.010;13.792;2023-07-13T05:28:32;7.40;;;4.53;;
75603;SDS011;64187;51.010;13.792;2023-07-13T05:33:32;6.13;;;4.13;;
75603;SDS011;64187;51.010;13.792;2023-07-13T05:38:31;10.23;;;4.50;;
75603;SDS011;64187;51.010;13.792;2023-07-13T05:43:30;5.60;;;4.22;;
75603;SDS011;64187;51.010;13.792;2023-07-13T05:48:29;7.15;;;4.85;;
75603;SDS011;64187;51.010;13.792;2023-07-13T05:53:27;9.27;;;4.60;;
75603;SDS011;64187;51.010;13.792;2023-07-13T05:58:26;4.88;;;4.22;;
75603;SDS011;64187;51.010;13.792;2023-07-13T06:03:25;4.68;;;3.83;;
75603;SDS011;64187;51.010;13.792;2023-07-13T06:08:24;4.43;;;3.47;;
75603;SDS011;64187;51.010;13.792;2023-07-13T06:13:24;6.68;;;3.83;;
75603;SDS011;64187;51.010;13.792;2023-07-13T06:18:23;8.02;;;4.78;;
75603;SDS011;64187;51.010;13.792;2023-07-13T06:23:23;4.57;;;3.90;;
75603;SDS011;64187;51.010;13.792;2023-07-13T06:28:22;11.65;;;3.78;;
75603;SDS011;64187;51.010;13.792;2023-07-13T06:33:21;4.38;;;3.97;;
75603;SDS011;64187;51.010;13.792;2023-07-13T06:38:20;6.75;;;4.00;;
75603;SDS011;64187;51.010;13.792;2023-07-13T06:43:19;7.13;;;3.67;;
75603;SDS011;64187;51.010;13.792;2023-07-13T06:48:19;2.05;;;1.38;;
75603;SDS011;64187;51.010;13.792;2023-07-13T06:53:19;3.83;;;2.72;;
75603;SDS011;64187;51.010;13.792;2023-07-13T06:58:19;3.53;;;1.98;;
75603;SDS011;64187;51.010;13.792;2023-07-13T07:03:18;3.55;;;1.98;;
75603;SDS011;64187;51.010;13.792;2023-07-13T07:08:17;4.63;;;2.60;;
75603;SDS011;64187;51.010;13.792;2023-07-13T07:13:16;3.20;;;2.28;;
75603;SDS011;64187;51.010;13.792;2023-07-13T07:18:15;3.47;;;2.30;;
75603;SDS011;64187;51.010;13.792;2023-07-13T07:23:14;3.85;;;2.50;;
75603;SDS011;64187;51.010;13.792;2023-07-13T07:28:14;4.03;;;2.38;;
75603;SDS011;64187;51.010;13.792;2023-07-13T07:33:19;11.50;;;2.65;;
75603;SDS011;64187;51.010;13.792;2023-07-13T07:38:18;3.20;;;2.45;;
75603;SDS011;64187;51.010;13.792;2023-07-13T07:43:20;5.65;;;2.10;;
75603;SDS011;64187;51.010;13.792;2023-07-13T07:48:19;15.40;;;3.35;;
75603;SDS011;64187;51.010;13.792;2023-07-13T07:53:18;7.30;;;2.97;;
75603;SDS011;64187;51.010;13.792;2023-07-13T07:58:17;13.20;;;3.85;;
75603;SDS011;64187;51.010;13.792;2023-07-13T08:03:20;7.72;;;2.85;;
75603;SDS011;64187;51.010;13.792;2023-07-13T08:08:21;4.68;;;2.45;;
75603;SDS011;64187;51.010;13.792;2023-07-13T08:13:20;2.42;;;2.10;;
75603;SDS011;64187;51.010;13.792;2023-07-13T08:18:19;4.70;;;2.00;;
75603;SDS011;64187;51.010;13.792;2023-07-13T08:23:18;3.00;;;2.35;;
75603;SDS011;64187;51.010;13.792;2023-07-13T08:28:17;4.30;;;1.92;;
75603;SDS011;64187;51.010;13.792;2023-07-13T08:33:19;2.75;;;1.85;;
75603;SDS011;64187;51.010;13.792;2023-07-13T08:38:22;4.13;;;1.88;;
75603;SDS011;64187;51.010;13.792;2023-07-13T08:43:28;4.78;;;1.85;;
75603;SDS011;64187;51.010;13.792;2023-07-13T08:48:37;4.22;;;2.10;;
75603;SDS011;64187;51.010;13.792;2023-07-13T08:54:24;3.22;;;2.05;;
75603;SDS011;64187;51.010;13.792;2023-07-13T08:59:30;4.50;;;1.90;;
75603;SDS011;64187;51.010;13.792;2023-07-13T09:14:54;3.05;;;1.60;;
75603;SDS011;64187;51.010;13.792;2023-07-13T09:20:10;2.95;;;2.53;;
75603;SDS011;64187;51.010;13.792;2023-07-13T09:25:23;2.80;;;1.70;;
75603;SDS011;64187;51.010;13.792;2023-07-13T09:30:26;3.53;;;1.90;;
75603;SDS011;64187;51.010;13.792;2023-07-13T09:35:47;3.38;;;2.10;;
75603;SDS011;64187;51.010;13.792;2023-07-13T09:40:59;3.35;;;2.28;;
75603;SDS011;64187;51.010;13.792;2023-07-13T09:45:58;2.35;;;1.88;;
75603;SDS011;64187;51.010;13.792;2023-07-13T09:50:58;4.20;;;1.50;;
75603;SDS011;64187;51.010;13.792;2023-07-13T09:56:21;2.60;;;1.80;;
75603;SDS011;64187;51.010;13.792;2023-07-13T10:01:30;1.98;;;1.50;;
75603;SDS011;64187;51.010;13.792;2023-07-13T10:06:31;3.25;;;1.85;;
75603;SDS011;64187;51.010;13.792;2023-07-13T10:11:30;3.75;;;1.95;;
75603;SDS011;64187;51.010;13.792;2023-07-13T10:16:34;3.20;;;1.60;;
75603;SDS011;64187;51.010;13.792;2023-07-13T10:21:55;2.60;;;2.13;;
75603;SDS011;64187;51.010;13.792;2023-07-13T10:32:04;3.97;;;2.25;;
75603;SDS011;64187;51.010;13.792;2023-07-13T10:37:16;2.60;;;1.60;;
75603;SDS011;64187;51.010;13.792;2023-07-13T10:42:30;2.42;;;1.55;;
75603;SDS011;64187;51.010;13.792;2023-07-13T10:47:33;2.85;;;1.75;;
75603;SDS011;64187;51.010;13.792;2023-07-13T10:52:46;4.75;;;1.80;;
75603;SDS011;64187;51.010;13.792;2023-07-13T10:57:49;3.08;;;1.52;;
75603;SDS011;64187;51.010;13.792;2023-07-13T11:02:56;3.15;;;2.00;;
75603;SDS011;64187;51.010;13.792;2023-07-13T11:08:11;5.38;;;2.00;;
75603;SDS011;64187;51.010;13.792;2023-07-13T11:18:35;4.07;;;2.20;;
75603;SDS011;64187;51.010;13.792;2023-07-13T11:23:34;2.10;;;1.33;;
75603;SDS011;64187;51.010;13.792;2023-07-13T11:28:41;3.88;;;1.63;;
75603;SDS011;64187;51.010;13.792;2023-07-13T11:38:42;3.20;;;1.80;;
75603;SDS011;64187;51.010;13.792;2023-07-13T11:43:48;3.67;;;2.22;;
75603;SDS011;64187;51.010;13.792;2023-07-13T11:48:48;3.38;;;1.88;;
75603;SDS011;64187;51.010;13.792;2023-07-13T11:53:50;4.18;;;2.42;;
75603;SDS011;64187;51.010;13.792;2023-07-13T11:58:53;2.90;;;1.90;;
75603;SDS011;64187;51.010;13.792;2023-07-13T12:03:55;2.85;;;1.73;;
75603;SDS011;64187;51.010;13.792;2023-07-13T12:08:59;3.60;;;2.15;;
75603;SDS011;64187;51.010;13.792;2023-07-13T12:13:59;4.57;;;1.65;;
75603;SDS011;64187;51.010;13.792;2023-07-13T12:19:00;2.22;;;1.70;;
75603;SDS011;64187;51.010;13.792;2023-07-13T12:24:01;3.08;;;2.10;;
75603;SDS011;64187;51.010;13.792;2023-07-13T12:29:04;5.03;;;1.80;;
75603;SDS011;64187;51.010;13.792;2023-07-13T12:34:09;3.17;;;2.10;;
75603;SDS011;64187;51.010;13.792;2023-07-13T12:39:14;3.38;;;2.00;;
75603;SDS011;64187;51.010;13.792;2023-07-13T12:44:18;5.25;;;2.22;;
75603;SDS011;64187;51.010;13.792;2023-07-13T12:49:27;3.33;;;1.95;;
75603;SDS011;64187;51.010;13.792;2023-07-13T12:54:28;3.22;;;2.08;;
75603;SDS011;64187;51.010;13.792;2023-07-13T12:59:29;4.55;;;2.17;;
75603;SDS011;64187;51.010;13.792;2023-07-13T13:04:32;3.35;;;1.67;;
75603;SDS011;64187;51.010;13.792;2023-07-13T13:09:32;4.28;;;1.85;;
75603;SDS011;64187;51.010;13.792;2023-07-13T13:14:31;1.70;;;1.60;;
75603;SDS011;64187;51.010;13.792;2023-07-13T13:19:29;1.90;;;1.48;;
75603;SDS011;64187;51.010;13.792;2023-07-13T13:24:29;5.13;;;2.30;;
75603;SDS011;64187;51.010;13.792;2023-07-13T13:29:28;4.82;;;1.95;;
75603;SDS011;64187;51.010;13.792;2023-07-13T13:34:29;4.60;;;2.50;;
75603;SDS011;64187;51.010;13.792;2023-07-13T13:39:34;1.42;;;1.27;;
75603;SDS011;64187;51.010;13.792;2023-07-13T13:44:34;2.22;;;1.40;;
75603;SDS011;64187;51.010;13.792;2023-07-13T13:49:33;2.38;;;1.77;;
75603;SDS011;64187;51.010;13.792;2023-07-13T13:54:35;3.40;;;1.70;;
75603;SDS011;64187;51.010;13.792;2023-07-13T13:59:34;3.05;;;1.67;;
75603;SDS011;64187;51.010;13.792;2023-07-13T14:04:38;1.83;;;1.45;;
75603;SDS011;64187;51.010;13.792;2023-07-13T14:09:37;3.03;;;1.92;;
75603;SDS011;64187;51.010;13.792;2023-07-13T14:14:37;1.90;;;1.45;;
75603;SDS011;64187;51.010;13.792;2023-07-13T14:19:36;3.00;;;1.73;;
75603;SDS011;64187;51.010;13.792;2023-07-13T14:24:36;3.00;;;1.75;;
75603;SDS011;64187;51.010;13.792;2023-07-13T14:29:34;3.53;;;1.90;;
75603;SDS011;64187;51.010;13.792;2023-07-13T14:34:34;3.10;;;1.50;;
75603;SDS011;64187;51.010;13.792;2023-07-13T14:39:34;4.47;;;1.67;;
75603;SDS011;64187;51.010;13.792;2023-07-13T14:44:33;2.33;;;1.50;;
75603;SDS011;64187;51.010;13.792;2023-07-13T14:49:32;3.45;;;1.73;;
75603;SDS011;64187;51.010;13.792;2023-07-13T14:54:33;3.00;;;1.50;;
75603;SDS011;64187;51.010;13.792;2023-07-13T14:59:33;5.65;;;1.65;;
75603;SDS011;64187;51.010;13.792;2023-07-13T15:04:33;2.65;;;1.60;;
75603;SDS011;64187;51.010;13.792;2023-07-13T15:09:32;3.83;;;1.92;;
75603;SDS011;64187;51.010;13.792;2023-07-13T15:14:31;4.63;;;1.58;;
75603;SDS011;64187;51.010;13.792;2023-07-13T15:19:31;2.28;;;1.60;;
75603;SDS011;64187;51.010;13.792;2023-07-13T15:24:31;2.60;;;1.60;;
75603;SDS011;64187;51.010;13.792;2023-07-13T15:29:30;2.25;;;1.38;;
75603;SDS011;64187;51.010;13.792;2023-07-13T15:34:30;2.47;;;1.65;;
75603;SDS011;64187;51.010;13.792;2023-07-13T15:39:29;3.67;;;1.95;;
75603;SDS011;64187;51.010;13.792;2023-07-13T15:44:31;1.65;;;1.23;;
75603;SDS011;64187;51.010;13.792;2023-07-13T15:49:30;2.72;;;1.38;;
75603;SDS011;64187;51.010;13.792;2023-07-13T15:54:29;2.58;;;1.40;;
75603;SDS011;64187;51.010;13.792;2023-07-13T15:59:31;1.98;;;1.50;;
75603;SDS011;64187;51.010;13.792;2023-07-13T16:04:30;1.50;;;1.40;;
75603;SDS011;64187;51.010;13.792;2023-07-13T16:09:29;1.77;;;1.52;;
75603;SDS011;64187;51.010;13.792;2023-07-13T16:14:29;2.47;;;1.00;;
75603;SDS011;64187;51.010;13.792;2023-07-13T16:19:27;2.83;;;1.10;;
75603;SDS011;64187;51.010;13.792;2023-07-13T16:24:28;2.33;;;1.08;;
75603;SDS011;64187;51.010;13.792;2023-07-13T16:29:28;2.67;;;1.63;;
75603;SDS011;64187;51.010;13.792;2023-07-13T16:34:32;2.22;;;1.13;;
75603;SDS011;64187;51.010;13.792;2023-07-13T16:39:35;1.83;;;0.95;;
75603;SDS011;64187;51.010;13.792;2023-07-13T16:44:34;2.42;;;1.20;;
75603;SDS011;64187;51.010;13.792;2023-07-13T16:49:34;1.80;;;1.45;;
75603;SDS011;64187;51.010;13.792;2023-07-13T16:54:36;2.17;;;1.45;;
75603;SDS011;64187;51.010;13.792;2023-07-13T16:59:37;1.73;;;1.63;;
75603;SDS011;64187;51.010;13.792;2023-07-13T17:04:36;3.33;;;2.30;;
75603;SDS011;64187;51.010;13.792;2023-07-13T17:09:35;2.88;;;1.92;;
75603;SDS011;64187;51.010;13.792;2023-07-13T17:14:34;3.63;;;1.95;;
75603;SDS011;64187;51.010;13.792;2023-07-13T17:19:35;4.25;;;2.22;;
75603;SDS011;64187;51.010;13.792;2023-07-13T17:24:34;4.22;;;2.10;;
75603;SDS011;64187;51.010;13.792;2023-07-13T17:29:34;3.33;;;1.92;;
75603;SDS011;64187;51.010;13.792;2023-07-13T17:34:34;3.10;;;1.73;;
75603;SDS011;64187;51.010;13.792;2023-07-13T17:39:33;2.05;;;1.70;;
75603;SDS011;64187;51.010;13.792;2023-07-13T17:44:32;2.08;;;1.65;;
75603;SDS011;64187;51.010;13.792;2023-07-13T17:49:32;2.58;;;1.55;;
75603;SDS011;64187;51.010;13.792;2023-07-13T17:54:31;2.60;;;1.45;;
75603;SDS011;64187;51.010;13.792;2023-07-13T17:59:31;5.15;;;1.23;;
75603;SDS011;64187;51.010;13.792;2023-07-13T18:04:30;2.33;;;1.52;;
75603;SDS011;64187;51.010;13.792;2023-07-13T18:09:30;2.30;;;1.30;;
75603;SDS011;64187;51.010;13.792;2023-07-13T18:14:29;1.42;;;1.33;;
75603;SDS011;64187;51.010;13.792;2023-07-13T18:19:39;2.75;;;1.40;;
75603;SDS011;64187;51.010;13.792;2023-07-13T18:24:41;2.63;;;1.08;;
75603;SDS011;64187;51.010;13.792;2023-07-13T18:29:40;3.38;;;1.38;;
75603;SDS011;64187;51.010;13.792;2023-07-13T18:34:41;2.47;;;1.40;;
75603;SDS011;64187;51.010;13.792;2023-07-13T18:39:41;3.65;;;1.10;;
75603;SDS011;64187;51.010;13.792;2023-07-13T18:44:40;3.40;;;1.42;;
75603;SDS011;64187;51.010;13.792;2023-07-13T18:49:39;3.95;;;0.95;;
75603;SDS011;64187;51.010;13.792;2023-07-13T18:54:39;2.03;;;0.93;;
75603;SDS011;64187;51.010;13.792;2023-07-13T18:59:39;1.90;;;1.15;;
75603;SDS011;64187;51.010;13.792;2023-07-13T19:04:38;1.50;;;1.33;;
75603;SDS011;64187;51.010;13.792;2023-07-13T19:09:38;1.60;;;1.23;;
75603;SDS011;64187;51.010;13.792;2023-07-13T19:14:39;3.78;;;1.23;;
75603;SDS011;64187;51.010;13.792;2023-07-13T19:19:39;2.75;;;1.02;;
75603;SDS011;64187;51.010;13.792;2023-07-13T19:24:38;1.55;;;1.30;;
75603;SDS011;64187;51.010;13.792;2023-07-13T19:29:38;2.22;;;1.10;;
75603;SDS011;64187;51.010;13.792;2023-07-13T19:34:38;1.80;;;1.15;;
75603;SDS011;64187;51.010;13.792;2023-07-13T19:39:39;2.00;;;1.13;;
75603;SDS011;64187;51.010;13.792;2023-07-13T19:44:49;1.73;;;1.15;;
75603;SDS011;64187;51.010;13.792;2023-07-13T19:49:50;2.00;;;1.23;;
75603;SDS011;64187;51.010;13.792;2023-07-13T19:54:50;1.75;;;1.00;;
75603;SDS011;64187;51.010;13.792;2023-07-13T19:59:52;1.50;;;1.23;;
75603;SDS011;64187;51.010;13.792;2023-07-13T20:04:53;3.22;;;1.13;;
75603;SDS011;64187;51.010;13.792;2023-07-13T20:15:32;1.90;;;1.00;;
75603;SDS011;64187;51.010;13.792;2023-07-13T20:20:35;2.25;;;1.05;;
75603;SDS011;64187;51.010;13.792;2023-07-13T20:25:36;2.45;;;1.15;;
75603;SDS011;64187;51.010;13.792;2023-07-13T20:30:36;2.05;;;0.98;;
75603;SDS011;64187;51.010;13.792;2023-07-13T20:35:38;1.30;;;1.02;;
75603;SDS011;64187;51.010;13.792;2023-07-13T20:40:37;2.50;;;1.00;;
75603;SDS011;64187;51.010;13.792;2023-07-13T20:45:40;5.22;;;1.42;;
75603;SDS011;64187;51.010;13.792;2023-07-13T20:50:40;2.40;;;1.20;;
75603;SDS011;64187;51.010;13.792;2023-07-13T20:55:42;2.10;;;1.15;;
75603;SDS011;64187;51.010;13.792;2023-07-13T21:00:41;2.17;;;1.25;;
75603;SDS011;64187;51.010;13.792;2023-07-13T21:05:41;2.97;;;1.35;;
75603;SDS011;64187;51.010;13.792;2023-07-13T21:10:40;2.50;;;1.13;;
75603;SDS011;64187;51.010;13.792;2023-07-13T21:15:40;2.30;;;1.20;;
75603;SDS011;64187;51.010;13.792;2023-07-13T21:20:40;2.05;;;1.30;;
75603;SDS011;64187;51.010;13.792;2023-07-13T21:25:43;2.80;;;1.65;;
75603;SDS011;64187;51.010;13.792;2023-07-13T21:30:42;2.65;;;1.23;;
75603;SDS011;64187;51.010;13.792;2023-07-13T21:35:42;2.10;;;1.45;;
75603;SDS011;64187;51.010;13.792;2023-07-13T21:40:42;2.55;;;1.30;;
75603;SDS011;64187;51.010;13.792;2023-07-13T21:45:41;1.92;;;1.40;;
75603;SDS011;64187;51.010;13.792;2023-07-13T21:50:59;2.10;;;1.17;;
75603;SDS011;64187;51.010;13.792;2023-07-13T21:56:00;2.47;;;1.40;;
75603;SDS011;64187;51.010;13.792;2023-07-13T22:01:01;2.38;;;1.10;;
75603;SDS011;64187;51.010;13.792;2023-07-13T22:06:01;5.97;;;1.65;;
75603;SDS011;64187;51.010;13.792;2023-07-13T22:11:14;4.50;;;2.03;;
75603;SDS011;64187;51.010;13.792;2023-07-13T22:16:22;4.95;;;1.65;;
75603;SDS011;64187;51.010;13.792;2023-07-13T22:21:22;2.53;;;1.52;;
75603;SDS011;64187;51.010;13.792;2023-07-13T22:26:22;3.30;;;1.73;;
75603;SDS011;64187;51.010;13.792;2023-07-13T22:31:30;2.72;;;1.63;;
75603;SDS011;64187;51.010;13.792;2023-07-13T22:36:29;2.60;;;1.83;;
75603;SDS011;64187;51.010;13.792;2023-07-13T22:41:28;3.15;;;1.60;;
75603;SDS011;64187;51.010;13.792;2023-07-13T22:46:27;4.55;;;1.45;;
75603;SDS011;64187;51.010;13.792;2023-07-13T22:51:30;2.15;;;1.38;;
75603;SDS011;64187;51.010;13.792;2023-07-13T22:56:29;3.78;;;1.83;;
75603;SDS011;64187;51.010;13.792;2023-07-13T23:01:29;4.40;;;1.60;;
75603;SDS011;64187;51.010;13.792;2023-07-13T23:06:30;2.50;;;1.77;;
75603;SDS011;64187;51.010;13.792;2023-07-13T23:11:33;3.38;;;1.73;;
75603;SDS011;64187;51.010;13.792;2023-07-13T23:16:31;4.53;;;1.77;;
75603;SDS011;64187;51.010;13.792;2023-07-13T23:21:30;3.13;;;1.60;;
75603;SDS011;64187;51.010;13.792;2023-07-13T23:26:30;2.95;;;1.60;;
75603;SDS011;64187;51.010;13.792;2023-07-13T23:31:30;2.15;;;1.60;;
75603;SDS011;64187;51.010;13.792;2023-07-13T23:36:31;3.90;;;2.15;;
75603;SDS011;64187;51.010;13.792;2023-07-13T23:41:30;1.77;;;1.35;;
75603;SDS011;64187;51.010;13.792;2023-07-13T23:46:45;3.92;;;1.70;;
75603;SDS011;64187;51.010;13.792;2023-07-13T23:51:50;4.05;;;1.90;;
75603;SDS011;64187;51.010;13.792;2023-07-13T23:56:53;3.05;;;1.70;;
